createdAt,value
2018-04-17T00:01:38.748Z,15.60
2018-04-17T00:04:06.313Z,15.70
2018-04-17T00:06:33.752Z,14.83
2018-04-17T00:09:01.298Z,13.73
2018-04-17T00:11:28.790Z,13.60
2018-04-17T00:13:56.221Z,14.53
2018-04-17T00:16:23.667Z,13.50
2018-04-17T00:18:51.097Z,15.70
2018-04-17T00:21:18.545Z,15.67
2018-04-17T00:23:46.012Z,16.80
2018-04-17T00:26:14.276Z,17.27
2018-04-17T00:28:41.734Z,18.97
2018-04-17T00:31:09.184Z,17.13
2018-04-17T00:33:36.620Z,17.80
2018-04-17T00:36:04.074Z,19.23
2018-04-17T00:38:32.010Z,16.50
2018-04-17T00:40:59.513Z,15.20
2018-04-17T00:43:26.947Z,16.33
2018-04-17T00:45:54.394Z,16.60
2018-04-17T00:48:21.832Z,16.70
2018-04-17T00:50:49.253Z,16.47
2018-04-17T00:53:28.627Z,21.77
2018-04-17T00:55:56.941Z,23.20
2018-04-17T00:58:24.377Z,21.50
2018-04-17T01:00:51.821Z,23.17
2018-04-17T01:03:19.251Z,21.57
2018-04-17T01:05:46.677Z,23.77
2018-04-17T01:08:14.120Z,24.23
2018-04-17T01:10:41.573Z,24.97
2018-04-17T01:13:09.005Z,26.20
2018-04-17T01:15:36.459Z,27.60
2018-04-17T01:18:03.892Z,24.27
2018-04-17T01:20:31.337Z,25.10
2018-04-17T01:22:58.791Z,25.70
2018-04-17T01:25:26.216Z,24.97
2018-04-17T01:27:53.652Z,23.00
2018-04-17T01:30:21.124Z,28.63
2018-04-17T01:32:48.594Z,36.10
2018-04-17T01:35:16.054Z,34.67
2018-04-17T01:37:43.503Z,27.47
2018-04-17T01:40:10.933Z,29.13
2018-04-17T01:42:38.369Z,25.43
2018-04-17T01:45:05.849Z,25.57
2018-04-17T01:47:33.295Z,25.63
2018-04-17T01:50:00.734Z,28.83
2018-04-17T01:52:28.190Z,28.37
2018-04-17T01:54:55.622Z,29.80
2018-04-17T01:57:23.053Z,28.90
2018-04-17T01:59:50.513Z,38.03
2018-04-17T02:02:17.967Z,39.30
2018-04-17T02:04:45.405Z,36.23
2018-04-17T02:07:12.851Z,38.07
2018-04-17T02:09:40.282Z,32.85
2018-04-17T02:12:07.817Z,31.93
2018-04-17T02:14:35.255Z,27.80
2018-04-17T02:17:02.693Z,27.53
2018-04-17T02:19:30.130Z,32.27
2018-04-17T02:21:57.629Z,27.27
2018-04-17T02:24:25.103Z,25.83
2018-04-17T02:26:52.533Z,23.13
2018-04-17T02:29:19.977Z,22.23
2018-04-17T02:31:47.461Z,26.10
2018-04-17T02:34:14.905Z,24.30
2018-04-17T02:36:42.365Z,28.10
2018-04-17T02:39:09.793Z,25.57
2018-04-17T02:41:37.543Z,25.63
2018-04-17T02:44:05.010Z,21.27
2018-04-17T02:46:32.413Z,29.63
2018-04-17T02:48:59.836Z,29.67
2018-04-17T02:51:27.282Z,26.33
2018-04-17T02:53:54.779Z,26.03
2018-04-17T02:56:22.213Z,25.63
2018-04-17T02:58:49.671Z,30.23
2018-04-17T03:01:17.174Z,26.80
2018-04-17T03:03:44.600Z,23.53
2018-04-17T03:06:12.064Z,23.00
2018-04-17T03:08:39.492Z,25.57
2018-04-17T03:11:06.981Z,23.67
2018-04-17T03:13:34.434Z,22.17
2018-04-17T03:16:01.898Z,24.20
2018-04-17T03:18:29.631Z,22.90
2018-04-17T03:20:57.073Z,24.40
2018-04-17T03:23:24.529Z,60.00
2018-04-17T03:25:51.971Z,33.07
2018-04-17T03:28:19.409Z,28.13
2018-04-17T03:30:46.838Z,22.63
2018-04-17T03:33:14.265Z,25.70
2018-04-17T03:35:41.717Z,27.43
2018-04-17T03:38:09.156Z,26.50
2018-04-17T03:40:36.596Z,24.87
2018-04-17T03:43:04.071Z,23.90
2018-04-17T03:45:31.594Z,26.90
2018-04-17T03:47:59.045Z,25.03
2018-04-17T03:50:26.541Z,29.37
2018-04-17T03:52:53.965Z,30.87
2018-04-17T03:55:21.451Z,27.00
2018-04-17T03:57:48.893Z,25.37
2018-04-17T04:00:16.324Z,28.30
2018-04-17T04:02:43.770Z,28.33
2018-04-17T04:05:11.257Z,28.40
2018-04-17T04:07:38.694Z,29.20
2018-04-17T04:10:06.130Z,30.23
2018-04-17T04:12:33.622Z,30.97
2018-04-17T04:15:01.067Z,29.77
2018-04-17T04:17:40.170Z,28.47
2018-04-17T04:20:19.823Z,31.47
2018-04-17T04:22:59.281Z,32.30
2018-04-17T04:25:52.484Z,24.50
2018-04-17T04:28:19.930Z,27.00
2018-04-17T04:30:47.365Z,26.12
2018-04-17T04:33:14.813Z,29.10
2018-04-17T04:35:42.281Z,26.83
2018-04-17T04:38:09.724Z,26.97
2018-04-17T04:40:37.159Z,28.37
2018-04-17T04:43:04.598Z,30.23
2018-04-17T04:45:32.031Z,32.80
2018-04-17T04:47:59.473Z,34.57
2018-04-17T04:50:26.932Z,34.63
2018-04-17T04:52:54.393Z,33.87
2018-04-17T04:55:21.906Z,30.87
2018-04-17T04:57:49.408Z,33.40
2018-04-17T05:00:16.856Z,36.33
2018-04-17T05:02:44.297Z,35.90
2018-04-17T05:05:12.008Z,31.07
2018-04-17T05:07:39.525Z,31.03
2018-04-17T05:10:06.972Z,31.90
2018-04-17T05:12:34.412Z,30.77
2018-04-17T05:15:01.844Z,30.50
2018-04-17T05:17:29.292Z,29.13
2018-04-17T05:19:56.826Z,28.90
2018-04-17T05:22:24.253Z,26.87
2018-04-17T05:24:51.708Z,28.93
2018-04-17T05:27:19.169Z,27.07
2018-04-17T05:29:46.642Z,24.37
2018-04-17T05:32:14.076Z,22.10
2018-04-17T05:34:41.517Z,22.03
2018-04-17T05:37:09.008Z,22.00
2018-04-17T05:39:36.474Z,22.63
2018-04-17T05:42:03.924Z,23.77
2018-04-17T05:44:31.392Z,20.23
2018-04-17T05:46:58.819Z,18.50
2018-04-17T05:49:26.266Z,20.80
2018-04-17T05:51:53.760Z,18.13
2018-04-17T05:54:21.210Z,21.30
2018-04-17T05:56:48.687Z,20.30
2018-04-17T05:59:16.120Z,22.80
2018-04-17T06:01:43.608Z,21.23
2018-04-17T06:04:11.146Z,26.47
2018-04-17T06:06:38.579Z,27.43
2018-04-17T06:09:06.777Z,31.83
2018-04-17T06:11:34.347Z,28.43
2018-04-17T06:14:01.773Z,30.50
2018-04-17T06:16:29.205Z,30.50
2018-04-17T06:18:56.959Z,28.93
2018-04-17T06:21:24.395Z,27.33
2018-04-17T06:23:51.837Z,25.33
2018-04-17T06:26:19.276Z,24.43
2018-04-17T06:28:46.749Z,24.10
2018-04-17T06:31:14.214Z,23.90
2018-04-17T06:33:41.774Z,24.10
2018-04-17T06:36:09.216Z,24.50
2018-04-17T06:38:36.656Z,22.57
2018-04-17T06:41:04.140Z,22.93
2018-04-17T06:43:31.718Z,21.17
2018-04-17T06:45:59.152Z,22.27
2018-04-17T06:48:26.609Z,21.73
2018-04-17T06:50:54.078Z,19.00
2018-04-17T06:53:21.537Z,20.97
2018-04-17T06:55:49.012Z,20.60
2018-04-17T06:58:16.450Z,21.77
2018-04-17T07:00:43.907Z,23.90
2018-04-17T07:03:11.357Z,26.07
2018-04-17T07:05:38.789Z,24.50
2018-04-17T07:08:06.274Z,18.13
2018-04-17T07:10:33.733Z,18.20
2018-04-17T07:13:01.173Z,17.40
2018-04-17T07:15:28.615Z,18.10
2018-04-17T07:17:56.095Z,17.87
2018-04-17T07:20:23.532Z,18.75
2018-04-17T07:22:51.021Z,19.40
2018-04-17T07:25:18.481Z,19.00
2018-04-17T07:27:45.917Z,17.70
2018-04-17T07:30:13.425Z,17.97
2018-04-17T07:32:40.936Z,18.57
2018-04-17T07:35:08.369Z,17.30
2018-04-17T07:37:35.797Z,17.60
2018-04-17T07:40:03.257Z,19.20
2018-04-17T07:42:30.696Z,18.47
2018-04-17T07:44:58.132Z,17.20
2018-04-17T07:47:29.456Z,19.07
2018-04-17T07:49:56.865Z,17.70
2018-04-17T07:52:24.302Z,20.47
2018-04-17T07:54:51.746Z,18.60
2018-04-17T07:57:19.198Z,18.53
2018-04-17T07:59:46.658Z,15.90
2018-04-17T08:02:14.102Z,17.80
2018-04-17T08:04:41.537Z,16.90
2018-04-17T08:07:08.978Z,16.00
2018-04-17T08:09:36.450Z,17.90
2018-04-17T08:12:03.889Z,17.43
2018-04-17T08:14:31.325Z,16.40
2018-04-17T08:16:58.781Z,17.43
2018-04-17T08:19:26.235Z,17.47
2018-04-17T08:21:53.669Z,16.97
2018-04-17T08:24:21.123Z,17.80
2018-04-17T08:26:48.585Z,16.77
2018-04-17T08:29:16.029Z,17.50
2018-04-17T08:31:43.579Z,18.47
2018-04-17T08:34:11.029Z,16.87
2018-04-17T08:36:38.516Z,19.57
2018-04-17T08:39:06.088Z,17.47
2018-04-17T08:41:34.524Z,18.87
2018-04-17T08:44:02.008Z,19.10
2018-04-17T08:46:29.454Z,18.93
2018-04-17T08:48:56.908Z,17.60
2018-04-17T08:51:24.345Z,18.60
2018-04-17T08:53:51.790Z,17.57
2018-04-17T08:56:19.238Z,17.83
2018-04-17T08:58:46.694Z,17.73
2018-04-17T09:01:14.191Z,19.20
2018-04-17T09:03:41.651Z,18.10
2018-04-17T09:06:09.113Z,19.03
2018-04-17T09:08:36.577Z,17.97
2018-04-17T09:11:04.039Z,17.73
2018-04-17T09:13:31.508Z,17.23
2018-04-17T09:15:58.965Z,16.73
2018-04-17T09:18:26.421Z,17.27
2018-04-17T09:20:53.889Z,16.47
2018-04-17T09:23:21.339Z,18.17
2018-04-17T09:25:48.773Z,18.37
2018-04-17T09:28:16.249Z,19.77
2018-04-17T09:30:43.718Z,17.20
2018-04-17T09:33:11.325Z,17.80
2018-04-17T09:35:38.813Z,18.60
2018-04-17T09:38:06.685Z,18.17
2018-04-17T09:40:34.133Z,18.40
2018-04-17T09:43:01.617Z,19.90
2018-04-17T09:45:29.202Z,19.60
2018-04-17T09:47:56.677Z,19.17
2018-04-17T09:50:24.104Z,19.77
2018-04-17T09:52:51.556Z,20.60
2018-04-17T09:55:19.008Z,19.70
2018-04-17T09:57:46.449Z,20.83
2018-04-17T10:00:13.894Z,21.90
2018-04-17T10:02:41.369Z,20.83
2018-04-17T10:05:08.814Z,20.67
2018-04-17T10:07:36.281Z,21.87
2018-04-17T10:10:03.718Z,25.23
2018-04-17T10:12:31.173Z,24.00
2018-04-17T10:14:58.625Z,24.17
2018-04-17T10:17:26.232Z,23.17
2018-04-17T10:19:53.681Z,23.90
2018-04-17T10:22:21.253Z,24.60
2018-04-17T10:24:48.681Z,24.20
2018-04-17T10:27:16.121Z,24.03
2018-04-17T10:29:43.571Z,24.57
2018-04-17T10:32:11.035Z,25.13
2018-04-17T10:34:38.473Z,24.73
2018-04-17T10:37:05.942Z,24.97
2018-04-17T10:39:33.453Z,24.07
2018-04-17T10:42:00.909Z,25.70
2018-04-17T10:44:28.345Z,28.33
2018-04-17T10:46:55.776Z,25.50
2018-04-17T10:49:23.240Z,25.00
2018-04-17T10:51:50.688Z,25.07
2018-04-17T10:54:18.160Z,25.80
2018-04-17T10:56:45.608Z,23.47
2018-04-17T10:59:13.063Z,24.60
2018-04-17T11:01:40.569Z,57.03
2018-04-17T11:04:08.015Z,29.80
2018-04-17T11:06:35.467Z,22.40
2018-04-17T11:09:02.949Z,21.60
2018-04-17T11:11:30.416Z,19.87
2018-04-17T11:13:57.888Z,20.50
2018-04-17T11:16:25.406Z,27.23
2018-04-17T11:18:52.953Z,32.70
2018-04-17T11:21:20.401Z,20.23
2018-04-17T11:23:47.865Z,21.23
2018-04-17T11:26:15.377Z,19.60
2018-04-17T11:28:42.833Z,18.40
2018-04-17T11:31:10.342Z,20.07
2018-04-17T11:33:37.857Z,19.40
2018-04-17T11:36:05.321Z,26.07
2018-04-17T11:38:32.797Z,19.13
2018-04-17T11:41:00.245Z,17.07
2018-04-17T11:43:27.689Z,15.87
2018-04-17T11:45:55.134Z,18.97
2018-04-17T11:48:22.640Z,15.97
2018-04-17T11:50:50.085Z,15.60
2018-04-17T11:53:17.582Z,15.80
2018-04-17T11:55:45.021Z,16.67
2018-04-17T11:58:12.473Z,16.33
2018-04-17T12:00:39.906Z,15.30
2018-04-17T12:03:07.380Z,16.13
2018-04-17T12:05:34.830Z,13.90
2018-04-17T12:08:02.307Z,14.57
2018-04-17T12:10:29.839Z,15.63
2018-04-17T12:12:57.589Z,14.93
2018-04-17T12:15:25.043Z,13.87
2018-04-17T12:17:52.477Z,14.70
2018-04-17T12:20:20.209Z,13.30
2018-04-17T12:22:47.656Z,13.43
2018-04-17T12:25:15.089Z,14.90
2018-04-17T12:27:42.542Z,11.93
2018-04-17T12:30:15.548Z,11.70
2018-04-17T12:32:43.009Z,14.20
2018-04-17T12:35:10.502Z,12.70
2018-04-17T12:37:37.949Z,12.67
2018-04-17T12:40:05.413Z,12.83
2018-04-17T12:42:32.849Z,15.60
2018-04-17T12:45:00.290Z,11.50
2018-04-17T12:47:27.772Z,13.73
2018-04-17T12:49:55.215Z,27.90
2018-04-17T12:52:22.644Z,10.87
2018-04-17T12:54:50.142Z,10.77
2018-04-17T12:57:17.679Z,11.57
2018-04-17T12:59:45.208Z,9.47
2018-04-17T13:02:12.679Z,9.60
2018-04-17T13:04:40.149Z,8.47
2018-04-17T13:07:07.607Z,7.67
2018-04-17T13:09:35.073Z,9.00
2018-04-17T13:12:02.513Z,8.20
2018-04-17T13:14:29.937Z,7.57
2018-04-17T13:16:57.455Z,7.63
2018-04-17T13:19:24.876Z,5.85
2018-04-17T13:21:52.355Z,6.15
2018-04-17T13:24:21.521Z,6.60
2018-04-17T13:26:49.013Z,7.05
2018-04-17T13:29:16.437Z,5.70
2018-04-17T13:31:43.905Z,6.10
2018-04-17T13:34:11.333Z,5.40
2018-04-17T13:36:38.893Z,6.15
2018-04-17T13:39:06.473Z,4.37
2018-04-17T13:41:33.900Z,3.87
2018-04-17T13:44:01.449Z,4.07
2018-04-17T13:46:28.893Z,3.28
2018-04-17T13:48:56.312Z,3.62
2018-04-17T13:51:23.740Z,3.78
2018-04-17T13:53:51.182Z,3.33
2018-04-17T13:56:18.635Z,3.97
2018-04-17T13:58:46.156Z,4.97
2018-04-17T14:01:13.620Z,3.83
2018-04-17T14:03:41.157Z,3.53
2018-04-17T14:06:08.637Z,3.00
2018-04-17T14:08:36.081Z,3.28
2018-04-17T14:11:03.505Z,2.55
2018-04-17T14:13:31.001Z,2.33
2018-04-17T14:15:58.442Z,2.40
2018-04-17T14:18:25.912Z,2.40
2018-04-17T14:20:53.350Z,3.15
2018-04-17T14:23:20.829Z,38.95
2018-04-17T14:25:48.288Z,2.33
2018-04-17T14:28:15.746Z,2.42
2018-04-17T14:30:43.183Z,3.00
2018-04-17T14:33:10.601Z,2.40
2018-04-17T14:35:38.116Z,3.65
2018-04-17T14:38:05.580Z,2.17
2018-04-17T14:40:33.005Z,2.20
2018-04-17T14:43:00.550Z,2.80
2018-04-17T14:45:28.197Z,2.65
2018-04-17T14:47:55.617Z,3.28
2018-04-17T14:50:23.068Z,3.05
2018-04-17T14:52:50.509Z,3.08
2018-04-17T14:55:17.937Z,3.30
2018-04-17T14:57:45.366Z,7.25
2018-04-17T15:00:12.796Z,8.70
2018-04-17T15:02:40.224Z,3.05
2018-04-17T15:05:07.649Z,3.47
2018-04-17T15:07:35.113Z,3.08
2018-04-17T15:10:02.636Z,3.30
2018-04-17T15:12:30.182Z,3.50
2018-04-17T15:14:57.622Z,4.12
2018-04-17T15:17:25.057Z,3.73
2018-04-17T15:19:52.576Z,4.50
2018-04-17T15:22:20.117Z,3.70
2018-04-17T15:24:47.542Z,2.87
2018-04-17T15:27:15.001Z,3.80
2018-04-17T15:29:42.495Z,3.90
2018-04-17T15:32:09.921Z,3.40
2018-04-17T15:34:37.369Z,3.50
2018-04-17T15:37:04.808Z,3.90
2018-04-17T15:39:32.253Z,21.33
2018-04-17T15:41:59.693Z,4.40
2018-04-17T15:44:27.148Z,4.43
2018-04-17T15:46:54.581Z,4.17
2018-04-17T15:49:22.041Z,4.37
2018-04-17T15:51:49.483Z,4.80
2018-04-17T15:54:16.965Z,3.67
2018-04-17T15:56:44.433Z,4.10
2018-04-17T15:59:11.888Z,8.87
2018-04-17T16:01:39.333Z,4.00
2018-04-17T16:04:06.787Z,5.13
2018-04-17T16:06:34.245Z,4.47
2018-04-17T16:09:01.697Z,4.00
2018-04-17T16:11:29.115Z,5.50
2018-04-17T16:13:56.549Z,5.47
2018-04-17T16:16:23.983Z,4.83
2018-04-17T16:18:51.412Z,4.13
2018-04-17T16:21:18.858Z,4.40
2018-04-17T16:23:46.392Z,5.50
2018-04-17T16:26:13.847Z,4.90
2018-04-17T16:28:41.383Z,4.90
2018-04-17T16:31:08.828Z,5.10
2018-04-17T16:33:36.263Z,29.80
2018-04-17T16:36:03.738Z,5.47
2018-04-17T16:38:31.190Z,5.97
2018-04-17T16:40:58.619Z,8.10
2018-04-17T16:43:26.066Z,4.93
2018-04-17T16:45:53.566Z,5.10
2018-04-17T16:48:21.016Z,5.07
2018-04-17T16:50:48.479Z,4.80
2018-04-17T16:53:15.902Z,3.93
2018-04-17T16:55:43.337Z,7.00
2018-04-17T16:58:10.799Z,4.70
2018-04-17T17:00:38.268Z,4.47
2018-04-17T17:03:05.756Z,4.83
2018-04-17T17:05:33.194Z,4.90
2018-04-17T17:08:00.621Z,4.57
2018-04-17T17:10:28.121Z,5.23
2018-04-17T17:12:55.560Z,5.90
2018-04-17T17:15:23.041Z,6.40
2018-04-17T17:17:50.486Z,6.60
2018-04-17T17:20:17.964Z,5.43
2018-04-17T17:22:45.365Z,7.27
2018-04-17T17:25:13.139Z,6.80
2018-04-17T17:27:41.208Z,5.37
2018-04-17T17:30:08.662Z,6.07
2018-04-17T17:32:36.119Z,5.60
2018-04-17T17:35:03.617Z,6.20
2018-04-17T17:37:31.050Z,6.00
2018-04-17T17:39:58.524Z,6.17
2018-04-17T17:42:25.964Z,5.90
2018-04-17T17:44:53.394Z,5.70
2018-04-17T17:47:20.828Z,5.20
2018-04-17T17:49:48.274Z,5.30
2018-04-17T17:52:15.702Z,5.50
2018-04-17T17:54:43.141Z,5.67
2018-04-17T17:57:10.623Z,4.83
2018-04-17T17:59:38.051Z,4.40
2018-04-17T18:02:05.490Z,5.60
2018-04-17T18:04:33.041Z,84.63
2018-04-17T18:07:00.528Z,21.30
2018-04-17T18:09:28.010Z,8.60
2018-04-17T18:11:55.465Z,9.13
2018-04-17T18:14:22.937Z,8.37
2018-04-17T18:16:50.369Z,8.23
2018-04-17T18:19:17.820Z,9.93
2018-04-17T18:21:45.241Z,8.57
2018-04-17T18:24:12.703Z,8.57
2018-04-17T18:26:40.147Z,8.57
2018-04-17T18:29:07.676Z,7.80
2018-04-17T18:31:35.134Z,8.90
2018-04-17T18:34:02.620Z,9.03
2018-04-17T18:36:30.186Z,9.10
2018-04-17T18:38:57.776Z,9.53
2018-04-17T18:41:25.232Z,9.60
2018-04-17T18:43:52.674Z,9.57
2018-04-17T18:46:20.250Z,10.50
2018-04-17T18:48:47.701Z,9.70
2018-04-17T18:51:15.137Z,9.63
2018-04-17T18:53:42.652Z,9.07
2018-04-17T18:56:10.207Z,8.90
2018-04-17T18:58:38.485Z,8.53
2018-04-17T19:01:05.944Z,22.47
2018-04-17T19:03:33.412Z,25.97
2018-04-17T19:06:00.870Z,11.33
2018-04-17T19:08:28.373Z,9.20
2018-04-17T19:10:55.833Z,10.30
2018-04-17T19:13:23.277Z,11.67
2018-04-17T19:15:50.709Z,10.90
2018-04-17T19:18:18.155Z,8.87
2018-04-17T19:20:45.597Z,10.07
2018-04-17T19:23:13.025Z,11.77
2018-04-17T19:25:40.504Z,12.10
2018-04-17T19:28:08.075Z,18.50
2018-04-17T19:30:35.530Z,22.40
2018-04-17T19:33:02.992Z,13.37
2018-04-17T19:35:30.445Z,12.30
2018-04-17T19:37:57.882Z,11.60
2018-04-17T19:40:25.334Z,11.33
2018-04-17T19:42:52.825Z,11.60
2018-04-17T19:45:20.280Z,11.57
2018-04-17T19:47:47.756Z,11.60
2018-04-17T19:50:15.218Z,12.67
2018-04-17T19:52:42.672Z,12.67
2018-04-17T19:55:10.168Z,12.83
2018-04-17T19:57:37.658Z,13.30
2018-04-17T20:00:05.097Z,13.20
2018-04-17T20:02:32.552Z,13.60
2018-04-17T20:05:00.044Z,33.60
2018-04-17T20:07:27.504Z,16.70
2018-04-17T20:09:54.954Z,15.83
2018-04-17T20:12:22.394Z,11.43
2018-04-17T20:14:49.835Z,14.10
2018-04-17T20:17:17.568Z,14.17
2018-04-17T20:19:45.037Z,13.33
2018-04-17T20:22:12.477Z,12.77
2018-04-17T20:24:39.949Z,12.97
2018-04-17T20:27:07.393Z,13.33
2018-04-17T20:29:34.913Z,13.27
2018-04-17T20:32:02.499Z,14.00
2018-04-17T20:34:29.954Z,11.93
2018-04-17T20:36:57.441Z,14.00
2018-04-17T20:39:24.888Z,14.03
2018-04-17T20:41:52.329Z,14.00
2018-04-17T20:44:19.780Z,13.73
2018-04-17T20:46:47.228Z,13.30
2018-04-17T20:49:14.675Z,14.65
2018-04-17T20:51:42.129Z,13.40
2018-04-17T20:54:09.577Z,14.80
2018-04-17T20:56:37.041Z,13.40
2018-04-17T20:59:04.488Z,12.60
2018-04-17T21:01:31.947Z,13.20
2018-04-17T21:03:59.423Z,13.47
2018-04-17T21:06:26.867Z,12.37
2018-04-17T21:08:54.321Z,11.43
2018-04-17T21:11:21.776Z,11.90
2018-04-17T21:13:49.226Z,11.60
2018-04-17T21:16:16.698Z,11.80
2018-04-17T21:18:44.134Z,12.20
2018-04-17T21:21:11.586Z,12.27
2018-04-17T21:23:39.042Z,12.90
2018-04-17T21:26:06.477Z,12.57
2018-04-17T21:28:33.927Z,11.57
2018-04-17T21:31:01.396Z,11.93
2018-04-17T21:33:28.831Z,13.00
2018-04-17T21:35:56.375Z,12.50
2018-04-17T21:38:23.837Z,13.80
2018-04-17T21:40:51.289Z,14.00
2018-04-17T21:43:18.737Z,13.53
2018-04-17T21:45:46.300Z,12.03
2018-04-17T21:48:13.739Z,13.60
2018-04-17T21:50:41.175Z,13.40
2018-04-17T21:53:08.652Z,13.20
2018-04-17T21:55:36.092Z,13.53
2018-04-17T21:58:03.585Z,13.77
2018-04-17T22:00:31.049Z,13.00
2018-04-17T22:02:58.476Z,14.30
2018-04-17T22:05:26.126Z,12.40
2018-04-17T22:07:53.603Z,13.50
2018-04-17T22:10:21.505Z,12.90
2018-04-17T22:12:48.947Z,13.70
2018-04-17T22:15:16.394Z,13.60
2018-04-17T22:17:43.822Z,14.20
2018-04-17T22:20:11.272Z,13.17
2018-04-17T22:22:38.932Z,13.90
2018-04-17T22:25:06.358Z,13.90
2018-04-17T22:27:33.786Z,14.17
2018-04-17T22:30:01.234Z,13.93
2018-04-17T22:32:28.663Z,14.07
2018-04-17T22:34:56.141Z,13.10
2018-04-17T22:37:23.629Z,13.47
2018-04-17T22:39:51.197Z,12.93
2018-04-17T22:42:18.633Z,14.00
2018-04-17T22:44:46.073Z,12.30
2018-04-17T22:47:13.507Z,13.23
2018-04-17T22:49:40.957Z,12.70
2018-04-17T22:52:08.401Z,13.23
2018-04-17T22:54:35.852Z,14.27
2018-04-17T22:57:03.265Z,14.23
2018-04-17T22:59:30.704Z,14.27
2018-04-17T23:01:58.145Z,13.23
2018-04-17T23:04:25.569Z,14.07
2018-04-17T23:06:53.085Z,14.00
2018-04-17T23:09:20.545Z,13.37
2018-04-17T23:11:47.980Z,14.67
2018-04-17T23:14:15.421Z,14.37
2018-04-17T23:16:42.914Z,14.53
2018-04-17T23:19:10.381Z,14.80
2018-04-17T23:21:37.828Z,13.97
2018-04-17T23:24:05.361Z,13.63
2018-04-17T23:26:32.840Z,14.00
2018-04-17T23:29:00.318Z,14.60
2018-04-17T23:31:27.740Z,14.00
2018-04-17T23:33:55.216Z,14.70
2018-04-17T23:36:22.656Z,13.70
2018-04-17T23:38:50.094Z,14.37
2018-04-17T23:41:17.526Z,14.30
2018-04-17T23:43:44.966Z,15.43
2018-04-17T23:46:12.434Z,14.10
2018-04-17T23:48:39.881Z,14.67
2018-04-17T23:51:07.324Z,14.37
2018-04-17T23:53:34.758Z,13.20
2018-04-17T23:56:02.237Z,12.97
2018-04-17T23:58:29.674Z,13.67
